sensor_id;sensor_type;location;lat;lon;timestamp;temperature;humidity
7206;DHT22;3644;53.480;10.004;2022-11-27T00:01:18;9.50;99.90
7206;DHT22;3644;53.480;10.004;2022-11-27T00:03:44;9.60;99.90
7206;DHT22;3644;53.480;10.004;2022-11-27T00:06:15;9.50;99.90
7206;DHT22;3644;53.480;10.004;2022-11-27T00:08:43;9.50;99.90
7206;DHT22;3644;53.480;10.004;2022-11-27T00:11:11;9.50;99.90
7206;DHT22;3644;53.480;10.004;2022-11-27T00:13:37;9.40;99.90
7206;DHT22;3644;53.480;10.004;2022-11-27T00:16:04;9.40;99.90
7206;DHT22;3644;53.480;10.004;2022-11-27T00:18:29;9.30;99.90
7206;DHT22;3644;53.480;10.004;2022-11-27T00:20:55;9.30;99.90
7206;DHT22;3644;53.480;10.004;2022-11-27T00:23:20;9.30;99.90
7206;DHT22;3644;53.480;10.004;2022-11-27T00:25:50;9.30;99.90
7206;DHT22;3644;53.480;10.004;2022-11-27T00:28:16;9.20;99.90
7206;DHT22;3644;53.480;10.004;2022-11-27T00:30:42;9.20;99.90
7206;DHT22;3644;53.480;10.004;2022-11-27T00:33:07;9.10;99.90
7206;DHT22;3644;53.480;10.004;2022-11-27T00:35:33;9.10;99.90
7206;DHT22;3644;53.480;10.004;2022-11-27T00:37:58;9.10;99.90
7206;DHT22;3644;53.480;10.004;2022-11-27T00:40:24;9.00;99.90
7206;DHT22;3644;53.480;10.004;2022-11-27T00:42:49;9.00;99.90
7206;DHT22;3644;53.480;10.004;2022-11-27T00:45:15;8.90;99.90
7206;DHT22;3644;53.480;10.004;2022-11-27T00:47:40;8.90;99.90
7206;DHT22;3644;53.480;10.004;2022-11-27T00:50:06;8.80;99.90
7206;DHT22;3644;53.480;10.004;2022-11-27T00:52:32;8.90;99.90
7206;DHT22;3644;53.480;10.004;2022-11-27T00:54:57;8.90;99.90
7206;DHT22;3644;53.480;10.004;2022-11-27T00:57:23;8.90;99.90
7206;DHT22;3644;53.480;10.004;2022-11-27T00:59:50;8.80;99.90
7206;DHT22;3644;53.480;10.004;2022-11-27T01:02:15;8.90;99.90
7206;DHT22;3644;53.480;10.004;2022-11-27T01:04:44;8.80;99.90
7206;DHT22;3644;53.480;10.004;2022-11-27T01:07:10;8.90;99.90
7206;DHT22;3644;53.480;10.004;2022-11-27T01:09:35;8.80;99.90
7206;DHT22;3644;53.480;10.004;2022-11-27T01:12:01;8.90;99.90
7206;DHT22;3644;53.480;10.004;2022-11-27T01:14:26;8.70;99.90
7206;DHT22;3644;53.480;10.004;2022-11-27T01:16:52;8.80;99.90
7206;DHT22;3644;53.480;10.004;2022-11-27T01:19:17;8.70;99.90
7206;DHT22;3644;53.480;10.004;2022-11-27T01:21:44;8.70;99.90
7206;DHT22;3644;53.480;10.004;2022-11-27T01:24:11;8.70;99.90
7206;DHT22;3644;53.480;10.004;2022-11-27T01:26:37;8.70;99.90
7206;DHT22;3644;53.480;10.004;2022-11-27T01:29:03;8.40;99.90
7206;DHT22;3644;53.480;10.004;2022-11-27T01:31:30;8.60;99.90
7206;DHT22;3644;53.480;10.004;2022-11-27T01:34:04;8.50;99.90
7206;DHT22;3644;53.480;10.004;2022-11-27T01:36:31;8.40;99.90
7206;DHT22;3644;53.480;10.004;2022-11-27T01:38:57;8.30;99.90
7206;DHT22;3644;53.480;10.004;2022-11-27T01:41:29;8.30;99.90
7206;DHT22;3644;53.480;10.004;2022-11-27T01:47:04;8.40;99.90
7206;DHT22;3644;53.480;10.004;2022-11-27T01:49:35;8.30;99.90
7206;DHT22;3644;53.480;10.004;2022-11-27T01:52:06;8.10;99.90
7206;DHT22;3644;53.480;10.004;2022-11-27T01:54:39;8.10;99.90
7206;DHT22;3644;53.480;10.004;2022-11-27T01:57:15;8.00;99.90
7206;DHT22;3644;53.480;10.004;2022-11-27T01:59:43;7.90;99.90
7206;DHT22;3644;53.480;10.004;2022-11-27T02:02:08;8.00;99.90
7206;DHT22;3644;53.480;10.004;2022-11-27T02:04:34;7.90;99.90
7206;DHT22;3644;53.480;10.004;2022-11-27T02:07:00;7.90;99.90
7206;DHT22;3644;53.480;10.004;2022-11-27T02:09:27;7.90;99.90
7206;DHT22;3644;53.480;10.004;2022-11-27T02:14:58;7.80;99.90
7206;DHT22;3644;53.480;10.004;2022-11-27T02:17:36;7.80;99.90
7206;DHT22;3644;53.480;10.004;2022-11-27T02:28:38;7.60;99.90
7206;DHT22;3644;53.480;10.004;2022-11-27T02:31:21;7.60;99.90
7206;DHT22;3644;53.480;10.004;2022-11-27T02:33:52;7.60;99.90
7206;DHT22;3644;53.480;10.004;2022-11-27T02:36:22;7.60;99.90
7206;DHT22;3644;53.480;10.004;2022-11-27T02:38:58;7.50;99.90
7206;DHT22;3644;53.480;10.004;2022-11-27T02:41:29;7.30;99.90
7206;DHT22;3644;53.480;10.004;2022-11-27T02:43:57;7.40;99.90
7206;DHT22;3644;53.480;10.004;2022-11-27T02:46:25;7.40;99.90
7206;DHT22;3644;53.480;10.004;2022-11-27T02:49:00;7.30;99.90
7206;DHT22;3644;53.480;10.004;2022-11-27T02:51:33;7.20;99.90
7206;DHT22;3644;53.480;10.004;2022-11-27T02:54:04;7.20;99.90
7206;DHT22;3644;53.480;10.004;2022-11-27T02:56:31;7.10;99.90
7206;DHT22;3644;53.480;10.004;2022-11-27T02:59:04;7.10;99.90
7206;DHT22;3644;53.480;10.004;2022-11-27T03:01:33;7.10;99.90
7206;DHT22;3644;53.480;10.004;2022-11-27T03:04:01;7.10;99.90
7206;DHT22;3644;53.480;10.004;2022-11-27T03:06:35;7.00;99.90
7206;DHT22;3644;53.480;10.004;2022-11-27T03:09:14;7.10;99.90
7206;DHT22;3644;53.480;10.004;2022-11-27T03:11:42;7.10;99.90
7206;DHT22;3644;53.480;10.004;2022-11-27T03:14:09;7.00;99.90
7206;DHT22;3644;53.480;10.004;2022-11-27T03:16:42;7.00;99.90
7206;DHT22;3644;53.480;10.004;2022-11-27T03:21:51;6.90;99.90
7206;DHT22;3644;53.480;10.004;2022-11-27T03:24:17;6.90;99.90
7206;DHT22;3644;53.480;10.004;2022-11-27T03:26:43;6.90;99.90
7206;DHT22;3644;53.480;10.004;2022-11-27T03:29:16;6.90;99.90
7206;DHT22;3644;53.480;10.004;2022-11-27T03:31:42;6.80;99.90
7206;DHT22;3644;53.480;10.004;2022-11-27T03:34:08;6.90;99.90
7206;DHT22;3644;53.480;10.004;2022-11-27T03:36:34;6.90;99.90
7206;DHT22;3644;53.480;10.004;2022-11-27T03:39:00;6.60;99.90
7206;DHT22;3644;53.480;10.004;2022-11-27T03:41:46;6.70;99.90
7206;DHT22;3644;53.480;10.004;2022-11-27T03:44:45;6.70;99.90
7206;DHT22;3644;53.480;10.004;2022-11-27T03:52:59;6.50;99.90
7206;DHT22;3644;53.480;10.004;2022-11-27T03:55:54;6.50;99.90
7206;DHT22;3644;53.480;10.004;2022-11-27T03:58:37;6.30;99.90
7206;DHT22;3644;53.480;10.004;2022-11-27T04:01:07;6.30;99.90
7206;DHT22;3644;53.480;10.004;2022-11-27T04:03:35;6.40;99.90
7206;DHT22;3644;53.480;10.004;2022-11-27T04:06:01;6.20;99.90
7206;DHT22;3644;53.480;10.004;2022-11-27T04:08:26;6.30;99.90
7206;DHT22;3644;53.480;10.004;2022-11-27T04:10:52;6.20;99.90
7206;DHT22;3644;53.480;10.004;2022-11-27T04:13:17;6.30;99.90
7206;DHT22;3644;53.480;10.004;2022-11-27T04:15:43;6.30;99.90
7206;DHT22;3644;53.480;10.004;2022-11-27T04:18:08;6.30;99.90
7206;DHT22;3644;53.480;10.004;2022-11-27T04:20:34;6.40;99.90
7206;DHT22;3644;53.480;10.004;2022-11-27T04:23:00;6.30;99.90
7206;DHT22;3644;53.480;10.004;2022-11-27T04:25:25;6.20;99.90
7206;DHT22;3644;53.480;10.004;2022-11-27T04:27:51;6.10;99.90
7206;DHT22;3644;53.480;10.004;2022-11-27T04:30:17;6.10;99.90
7206;DHT22;3644;53.480;10.004;2022-11-27T04:32:42;6.10;99.90
7206;DHT22;3644;53.480;10.004;2022-11-27T04:35:08;6.10;99.90
7206;DHT22;3644;53.480;10.004;2022-11-27T04:37:34;6.10;99.90
7206;DHT22;3644;53.480;10.004;2022-11-27T04:39:59;6.10;99.90
7206;DHT22;3644;53.480;10.004;2022-11-27T04:42:25;6.10;99.90
7206;DHT22;3644;53.480;10.004;2022-11-27T04:44:50;6.10;99.90
7206;DHT22;3644;53.480;10.004;2022-11-27T04:47:16;6.10;99.90
7206;DHT22;3644;53.480;10.004;2022-11-27T04:49:41;6.20;99.90
7206;DHT22;3644;53.480;10.004;2022-11-27T04:52:07;6.40;99.90
7206;DHT22;3644;53.480;10.004;2022-11-27T04:54:32;6.30;99.90
7206;DHT22;3644;53.480;10.004;2022-11-27T04:56:58;6.40;99.90
7206;DHT22;3644;53.480;10.004;2022-11-27T04:59:23;6.40;99.90
7206;DHT22;3644;53.480;10.004;2022-11-27T05:01:49;6.50;99.90
7206;DHT22;3644;53.480;10.004;2022-11-27T05:04:15;6.50;99.90
7206;DHT22;3644;53.480;10.004;2022-11-27T05:06:40;6.40;99.90
7206;DHT22;3644;53.480;10.004;2022-11-27T05:09:06;6.40;99.90
7206;DHT22;3644;53.480;10.004;2022-11-27T05:11:32;6.50;99.90
7206;DHT22;3644;53.480;10.004;2022-11-27T05:13:57;6.50;99.90
7206;DHT22;3644;53.480;10.004;2022-11-27T05:16:47;6.40;99.90
7206;DHT22;3644;53.480;10.004;2022-11-27T05:19:14;6.40;99.90
7206;DHT22;3644;53.480;10.004;2022-11-27T05:21:40;6.40;99.90
7206;DHT22;3644;53.480;10.004;2022-11-27T05:24:07;6.50;99.90
7206;DHT22;3644;53.480;10.004;2022-11-27T05:26:33;6.50;99.90
7206;DHT22;3644;53.480;10.004;2022-11-27T05:28:59;6.60;99.90
7206;DHT22;3644;53.480;10.004;2022-11-27T05:31:25;6.70;99.90
7206;DHT22;3644;53.480;10.004;2022-11-27T05:33:51;6.70;99.90
7206;DHT22;3644;53.480;10.004;2022-11-27T05:36:16;6.70;99.90
7206;DHT22;3644;53.480;10.004;2022-11-27T05:38:42;6.70;99.90
7206;DHT22;3644;53.480;10.004;2022-11-27T05:41:08;6.80;99.90
7206;DHT22;3644;53.480;10.004;2022-11-27T05:43:33;6.90;99.90
7206;DHT22;3644;53.480;10.004;2022-11-27T05:46:03;6.70;99.90
7206;DHT22;3644;53.480;10.004;2022-11-27T05:48:28;6.60;99.90
7206;DHT22;3644;53.480;10.004;2022-11-27T05:50:54;6.60;99.90
7206;DHT22;3644;53.480;10.004;2022-11-27T05:53:19;6.40;99.90
7206;DHT22;3644;53.480;10.004;2022-11-27T05:55:45;6.30;99.90
7206;DHT22;3644;53.480;10.004;2022-11-27T05:58:10;6.30;99.90
7206;DHT22;3644;53.480;10.004;2022-11-27T06:00:36;6.30;99.90
7206;DHT22;3644;53.480;10.004;2022-11-27T06:03:01;6.30;99.90
7206;DHT22;3644;53.480;10.004;2022-11-27T06:05:26;6.50;99.90
7206;DHT22;3644;53.480;10.004;2022-11-27T06:07:52;6.40;99.90
7206;DHT22;3644;53.480;10.004;2022-11-27T06:10:17;6.40;99.90
7206;DHT22;3644;53.480;10.004;2022-11-27T06:12:43;6.30;99.90
7206;DHT22;3644;53.480;10.004;2022-11-27T06:15:09;6.40;99.90
7206;DHT22;3644;53.480;10.004;2022-11-27T06:17:34;6.30;99.90
7206;DHT22;3644;53.480;10.004;2022-11-27T06:19:59;6.40;99.90
7206;DHT22;3644;53.480;10.004;2022-11-27T06:22:25;6.40;99.90
7206;DHT22;3644;53.480;10.004;2022-11-27T06:24:50;6.30;99.90
7206;DHT22;3644;53.480;10.004;2022-11-27T06:27:16;6.40;99.90
7206;DHT22;3644;53.480;10.004;2022-11-27T06:29:42;6.30;99.90
7206;DHT22;3644;53.480;10.004;2022-11-27T06:32:07;6.30;99.90
7206;DHT22;3644;53.480;10.004;2022-11-27T06:34:33;6.40;99.90
7206;DHT22;3644;53.480;10.004;2022-11-27T06:36:58;6.30;99.90
7206;DHT22;3644;53.480;10.004;2022-11-27T06:39:24;6.10;99.90
7206;DHT22;3644;53.480;10.004;2022-11-27T06:41:50;6.10;99.90
7206;DHT22;3644;53.480;10.004;2022-11-27T06:44:15;6.10;99.90
7206;DHT22;3644;53.480;10.004;2022-11-27T06:46:41;6.10;99.90
7206;DHT22;3644;53.480;10.004;2022-11-27T06:49:07;5.90;99.90
7206;DHT22;3644;53.480;10.004;2022-11-27T06:51:33;5.90;99.90
7206;DHT22;3644;53.480;10.004;2022-11-27T06:53:59;6.00;99.90
7206;DHT22;3644;53.480;10.004;2022-11-27T06:56:27;6.20;99.90
7206;DHT22;3644;53.480;10.004;2022-11-27T06:58:54;6.40;99.90
7206;DHT22;3644;53.480;10.004;2022-11-27T07:01:20;6.50;99.90
7206;DHT22;3644;53.480;10.004;2022-11-27T07:03:46;6.50;99.90
7206;DHT22;3644;53.480;10.004;2022-11-27T07:06:14;6.40;99.90
7206;DHT22;3644;53.480;10.004;2022-11-27T07:08:40;6.30;99.90
7206;DHT22;3644;53.480;10.004;2022-11-27T07:11:14;6.20;99.90
7206;DHT22;3644;53.480;10.004;2022-11-27T07:13:40;6.20;99.90
7206;DHT22;3644;53.480;10.004;2022-11-27T07:16:08;6.10;99.90
7206;DHT22;3644;53.480;10.004;2022-11-27T07:18:45;6.10;99.90
7206;DHT22;3644;53.480;10.004;2022-11-27T07:21:11;6.20;99.90
7206;DHT22;3644;53.480;10.004;2022-11-27T07:23:37;6.10;99.90
7206;DHT22;3644;53.480;10.004;2022-11-27T07:26:07;5.90;99.90
7206;DHT22;3644;53.480;10.004;2022-11-27T07:28:33;6.00;99.90
7206;DHT22;3644;53.480;10.004;2022-11-27T07:30:59;6.00;99.90
7206;DHT22;3644;53.480;10.004;2022-11-27T07:33:25;6.00;99.90
7206;DHT22;3644;53.480;10.004;2022-11-27T07:35:58;6.00;99.90
7206;DHT22;3644;53.480;10.004;2022-11-27T07:38:24;6.00;99.90
7206;DHT22;3644;53.480;10.004;2022-11-27T07:40:49;5.80;99.90
7206;DHT22;3644;53.480;10.004;2022-11-27T07:43:15;6.00;99.90
7206;DHT22;3644;53.480;10.004;2022-11-27T07:45:40;6.00;99.90
7206;DHT22;3644;53.480;10.004;2022-11-27T07:48:06;5.90;99.90
7206;DHT22;3644;53.480;10.004;2022-11-27T07:50:31;5.80;99.90
7206;DHT22;3644;53.480;10.004;2022-11-27T07:52:57;5.90;99.90
7206;DHT22;3644;53.480;10.004;2022-11-27T07:55:23;5.90;99.90
7206;DHT22;3644;53.480;10.004;2022-11-27T07:57:48;5.90;99.90
7206;DHT22;3644;53.480;10.004;2022-11-27T08:00:14;5.90;99.90
7206;DHT22;3644;53.480;10.004;2022-11-27T08:02:40;5.90;99.90
7206;DHT22;3644;53.480;10.004;2022-11-27T08:05:06;5.90;99.90
7206;DHT22;3644;53.480;10.004;2022-11-27T08:07:31;5.80;99.90
7206;DHT22;3644;53.480;10.004;2022-11-27T08:09:57;5.80;99.90
7206;DHT22;3644;53.480;10.004;2022-11-27T08:12:23;5.90;99.90
7206;DHT22;3644;53.480;10.004;2022-11-27T08:14:49;6.00;99.90
7206;DHT22;3644;53.480;10.004;2022-11-27T08:17:15;6.00;99.90
7206;DHT22;3644;53.480;10.004;2022-11-27T08:19:40;6.00;99.90
7206;DHT22;3644;53.480;10.004;2022-11-27T08:22:14;6.00;99.90
7206;DHT22;3644;53.480;10.004;2022-11-27T08:24:40;6.10;99.90
7206;DHT22;3644;53.480;10.004;2022-11-27T08:27:07;6.10;99.90
7206;DHT22;3644;53.480;10.004;2022-11-27T08:29:33;6.20;99.90
7206;DHT22;3644;53.480;10.004;2022-11-27T08:31:58;6.20;99.90
7206;DHT22;3644;53.480;10.004;2022-11-27T08:34:24;6.30;99.90
7206;DHT22;3644;53.480;10.004;2022-11-27T08:36:51;6.50;99.90
7206;DHT22;3644;53.480;10.004;2022-11-27T08:39:17;6.50;99.90
7206;DHT22;3644;53.480;10.004;2022-11-27T08:41:42;6.60;99.90
7206;DHT22;3644;53.480;10.004;2022-11-27T08:44:08;6.50;99.90
7206;DHT22;3644;53.480;10.004;2022-11-27T08:46:33;6.60;99.90
7206;DHT22;3644;53.480;10.004;2022-11-27T08:48:59;6.70;99.90
7206;DHT22;3644;53.480;10.004;2022-11-27T08:51:25;6.70;99.90
7206;DHT22;3644;53.480;10.004;2022-11-27T08:53:51;6.80;99.90
7206;DHT22;3644;53.480;10.004;2022-11-27T08:56:22;6.60;99.90
7206;DHT22;3644;53.480;10.004;2022-11-27T08:58:48;6.70;99.90
7206;DHT22;3644;53.480;10.004;2022-11-27T09:01:16;6.80;99.90
7206;DHT22;3644;53.480;10.004;2022-11-27T09:03:42;6.80;99.90
7206;DHT22;3644;53.480;10.004;2022-11-27T09:06:10;6.80;99.90
7206;DHT22;3644;53.480;10.004;2022-11-27T09:08:36;6.80;99.90
7206;DHT22;3644;53.480;10.004;2022-11-27T09:11:02;6.80;99.90
7206;DHT22;3644;53.480;10.004;2022-11-27T09:13:29;6.90;99.90
7206;DHT22;3644;53.480;10.004;2022-11-27T09:15:55;7.00;99.90
7206;DHT22;3644;53.480;10.004;2022-11-27T09:18:21;7.00;99.90
7206;DHT22;3644;53.480;10.004;2022-11-27T09:20:54;7.00;99.90
7206;DHT22;3644;53.480;10.004;2022-11-27T09:23:20;7.10;99.90
7206;DHT22;3644;53.480;10.004;2022-11-27T09:25:46;7.20;99.90
7206;DHT22;3644;53.480;10.004;2022-11-27T09:28:11;7.30;99.90
7206;DHT22;3644;53.480;10.004;2022-11-27T09:30:38;7.30;99.90
7206;DHT22;3644;53.480;10.004;2022-11-27T09:33:04;7.40;99.90
7206;DHT22;3644;53.480;10.004;2022-11-27T09:35:29;7.30;99.90
7206;DHT22;3644;53.480;10.004;2022-11-27T09:37:55;7.30;99.90
7206;DHT22;3644;53.480;10.004;2022-11-27T09:40:20;7.20;99.90
7206;DHT22;3644;53.480;10.004;2022-11-27T09:42:52;7.10;99.90
7206;DHT22;3644;53.480;10.004;2022-11-27T09:45:21;7.10;99.90
7206;DHT22;3644;53.480;10.004;2022-11-27T09:47:55;7.10;99.90
7206;DHT22;3644;53.480;10.004;2022-11-27T09:50:29;7.10;99.90
7206;DHT22;3644;53.480;10.004;2022-11-27T09:53:11;7.10;99.90
7206;DHT22;3644;53.480;10.004;2022-11-27T09:55:43;7.20;99.90
7206;DHT22;3644;53.480;10.004;2022-11-27T10:00:39;7.30;99.90
7206;DHT22;3644;53.480;10.004;2022-11-27T10:03:14;7.40;99.90
7206;DHT22;3644;53.480;10.004;2022-11-27T10:05:59;7.50;99.90
7206;DHT22;3644;53.480;10.004;2022-11-27T10:08:42;7.70;99.90
7206;DHT22;3644;53.480;10.004;2022-11-27T10:13:55;7.70;99.90
7206;DHT22;3644;53.480;10.004;2022-11-27T10:16:37;7.80;99.90
7206;DHT22;3644;53.480;10.004;2022-11-27T10:19:24;7.70;99.90
7206;DHT22;3644;53.480;10.004;2022-11-27T10:22:08;7.70;99.90
7206;DHT22;3644;53.480;10.004;2022-11-27T10:27:28;7.90;99.90
7206;DHT22;3644;53.480;10.004;2022-11-27T10:29:58;8.00;99.90
7206;DHT22;3644;53.480;10.004;2022-11-27T10:32:28;8.10;99.90
7206;DHT22;3644;53.480;10.004;2022-11-27T10:35:12;8.00;99.90
7206;DHT22;3644;53.480;10.004;2022-11-27T10:37:42;8.00;99.90
7206;DHT22;3644;53.480;10.004;2022-11-27T10:42:50;8.10;99.90
7206;DHT22;3644;53.480;10.004;2022-11-27T10:45:23;8.20;99.90
7206;DHT22;3644;53.480;10.004;2022-11-27T10:47:50;8.30;99.90
7206;DHT22;3644;53.480;10.004;2022-11-27T10:50:17;8.30;99.90
7206;DHT22;3644;53.480;10.004;2022-11-27T10:52:49;8.40;99.90
7206;DHT22;3644;53.480;10.004;2022-11-27T10:55:33;8.50;99.90
7206;DHT22;3644;53.480;10.004;2022-11-27T10:58:16;8.60;99.90
7206;DHT22;3644;53.480;10.004;2022-11-27T11:00:43;8.70;99.90
7206;DHT22;3644;53.480;10.004;2022-11-27T11:03:16;8.70;99.90
7206;DHT22;3644;53.480;10.004;2022-11-27T11:05:54;8.80;99.90
7206;DHT22;3644;53.480;10.004;2022-11-27T11:08:20;8.90;99.90
7206;DHT22;3644;53.480;10.004;2022-11-27T11:10:57;8.90;99.90
7206;DHT22;3644;53.480;10.004;2022-11-27T11:18:48;9.00;99.90
7206;DHT22;3644;53.480;10.004;2022-11-27T11:24:03;9.10;99.90
7206;DHT22;3644;53.480;10.004;2022-11-27T11:26:44;9.00;99.90
7206;DHT22;3644;53.480;10.004;2022-11-27T11:29:39;9.00;99.90
7206;DHT22;3644;53.480;10.004;2022-11-27T11:32:13;8.90;99.90
7206;DHT22;3644;53.480;10.004;2022-11-27T11:34:49;9.10;99.90
7206;DHT22;3644;53.480;10.004;2022-11-27T11:37:25;9.20;99.90
7206;DHT22;3644;53.480;10.004;2022-11-27T11:42:34;9.20;99.90
7206;DHT22;3644;53.480;10.004;2022-11-27T11:45:05;9.30;99.90
7206;DHT22;3644;53.480;10.004;2022-11-27T11:47:31;9.30;99.90
7206;DHT22;3644;53.480;10.004;2022-11-27T11:49:57;9.30;99.90
7206;DHT22;3644;53.480;10.004;2022-11-27T11:52:44;9.40;99.90
7206;DHT22;3644;53.480;10.004;2022-11-27T11:55:19;9.40;99.90
7206;DHT22;3644;53.480;10.004;2022-11-27T11:58:25;9.50;99.90
7206;DHT22;3644;53.480;10.004;2022-11-27T12:01:19;9.60;99.90
7206;DHT22;3644;53.480;10.004;2022-11-27T12:04:06;9.70;99.90
7206;DHT22;3644;53.480;10.004;2022-11-27T12:13:01;9.80;99.90
7206;DHT22;3644;53.480;10.004;2022-11-27T12:15:33;9.80;99.90
7206;DHT22;3644;53.480;10.004;2022-11-27T12:21:11;9.80;99.90
7206;DHT22;3644;53.480;10.004;2022-11-27T12:23:52;9.80;99.90
7206;DHT22;3644;53.480;10.004;2022-11-27T12:26:38;9.80;99.90
7206;DHT22;3644;53.480;10.004;2022-11-27T12:29:31;9.80;99.90
7206;DHT22;3644;53.480;10.004;2022-11-27T12:40:55;10.00;99.90
7206;DHT22;3644;53.480;10.004;2022-11-27T12:43:27;10.10;99.90
7206;DHT22;3644;53.480;10.004;2022-11-27T12:48:49;10.10;99.90
7206;DHT22;3644;53.480;10.004;2022-11-27T12:54:03;10.10;99.90
7206;DHT22;3644;53.480;10.004;2022-11-27T12:56:54;9.90;99.90
7206;DHT22;3644;53.480;10.004;2022-11-27T12:59:34;9.90;99.90
7206;DHT22;3644;53.480;10.004;2022-11-27T13:02:37;9.80;99.90
7206;DHT22;3644;53.480;10.004;2022-11-27T13:05:09;9.90;99.90
7206;DHT22;3644;53.480;10.004;2022-11-27T13:07:58;9.80;99.90
7206;DHT22;3644;53.480;10.004;2022-11-27T13:10:32;9.90;99.90
7206;DHT22;3644;53.480;10.004;2022-11-27T13:13:13;9.80;99.90
7206;DHT22;3644;53.480;10.004;2022-11-27T13:15:43;9.90;99.90
7206;DHT22;3644;53.480;10.004;2022-11-27T13:18:29;9.80;99.90
7206;DHT22;3644;53.480;10.004;2022-11-27T13:20:59;9.80;99.90
7206;DHT22;3644;53.480;10.004;2022-11-27T13:23:32;9.80;99.90
7206;DHT22;3644;53.480;10.004;2022-11-27T13:26:00;9.80;99.90
7206;DHT22;3644;53.480;10.004;2022-11-27T13:28:49;9.80;99.90
7206;DHT22;3644;53.480;10.004;2022-11-27T13:31:23;9.90;99.90
7206;DHT22;3644;53.480;10.004;2022-11-27T13:33:50;9.80;99.90
7206;DHT22;3644;53.480;10.004;2022-11-27T13:36:22;9.80;99.90
7206;DHT22;3644;53.480;10.004;2022-11-27T13:38:55;9.80;99.90
7206;DHT22;3644;53.480;10.004;2022-11-27T13:43:56;9.70;99.90
7206;DHT22;3644;53.480;10.004;2022-11-27T13:46:27;9.70;99.90
7206;DHT22;3644;53.480;10.004;2022-11-27T13:49:04;9.60;99.90
7206;DHT22;3644;53.480;10.004;2022-11-27T13:51:35;9.60;99.90
7206;DHT22;3644;53.480;10.004;2022-11-27T13:54:11;9.70;99.90
7206;DHT22;3644;53.480;10.004;2022-11-27T13:56:37;9.70;99.90
7206;DHT22;3644;53.480;10.004;2022-11-27T13:59:32;9.60;99.90
7206;DHT22;3644;53.480;10.004;2022-11-27T14:02:00;9.70;99.90
7206;DHT22;3644;53.480;10.004;2022-11-27T14:04:26;9.70;99.90
7206;DHT22;3644;53.480;10.004;2022-11-27T14:07:02;9.70;99.90
7206;DHT22;3644;53.480;10.004;2022-11-27T14:09:45;9.60;99.90
7206;DHT22;3644;53.480;10.004;2022-11-27T14:12:20;9.60;99.90
7206;DHT22;3644;53.480;10.004;2022-11-27T14:15:08;9.50;99.90
7206;DHT22;3644;53.480;10.004;2022-11-27T14:17:38;9.50;99.90
7206;DHT22;3644;53.480;10.004;2022-11-27T14:20:20;9.50;99.90
7206;DHT22;3644;53.480;10.004;2022-11-27T14:22:52;9.50;99.90
7206;DHT22;3644;53.480;10.004;2022-11-27T14:25:24;9.50;99.90
7206;DHT22;3644;53.480;10.004;2022-11-27T14:30:42;9.50;99.90
7206;DHT22;3644;53.480;10.004;2022-11-27T14:33:19;9.50;99.90
7206;DHT22;3644;53.480;10.004;2022-11-27T14:35:54;9.30;99.90
7206;DHT22;3644;53.480;10.004;2022-11-27T14:38:21;9.40;99.90
7206;DHT22;3644;53.480;10.004;2022-11-27T14:40:48;9.30;99.90
7206;DHT22;3644;53.480;10.004;2022-11-27T14:43:19;9.40;99.90
7206;DHT22;3644;53.480;10.004;2022-11-27T14:45:54;9.40;99.90
7206;DHT22;3644;53.480;10.004;2022-11-27T14:49:14;9.40;99.90
7206;DHT22;3644;53.480;10.004;2022-11-27T14:51:27;9.40;99.90
7206;DHT22;3644;53.480;10.004;2022-11-27T14:53:58;9.40;99.90
7206;DHT22;3644;53.480;10.004;2022-11-27T14:56:29;9.30;99.90
7206;DHT22;3644;53.480;10.004;2022-11-27T14:58:56;9.30;99.90
7206;DHT22;3644;53.480;10.004;2022-11-27T15:01:30;9.40;99.90
7206;DHT22;3644;53.480;10.004;2022-11-27T15:04:00;9.30;99.90
7206;DHT22;3644;53.480;10.004;2022-11-27T15:06:30;9.40;99.90
7206;DHT22;3644;53.480;10.004;2022-11-27T15:08:57;9.30;99.90
7206;DHT22;3644;53.480;10.004;2022-11-27T15:11:23;9.30;99.90
7206;DHT22;3644;53.480;10.004;2022-11-27T15:13:53;9.20;99.90
7206;DHT22;3644;53.480;10.004;2022-11-27T15:16:25;9.20;99.90
7206;DHT22;3644;53.480;10.004;2022-11-27T15:19:01;9.20;99.90
7206;DHT22;3644;53.480;10.004;2022-11-27T15:21:28;9.20;99.90
7206;DHT22;3644;53.480;10.004;2022-11-27T15:23:55;9.20;99.90
7206;DHT22;3644;53.480;10.004;2022-11-27T15:28:56;9.10;99.90
7206;DHT22;3644;53.480;10.004;2022-11-27T15:31:36;9.10;99.90
7206;DHT22;3644;53.480;10.004;2022-11-27T15:36:36;9.10;99.90
7206;DHT22;3644;53.480;10.004;2022-11-27T15:39:10;9.10;99.90
7206;DHT22;3644;53.480;10.004;2022-11-27T15:41:52;9.10;99.90
7206;DHT22;3644;53.480;10.004;2022-11-27T15:44:18;9.20;99.90
7206;DHT22;3644;53.480;10.004;2022-11-27T15:46:44;9.20;99.90
7206;DHT22;3644;53.480;10.004;2022-11-27T15:49:13;9.20;99.90
7206;DHT22;3644;53.480;10.004;2022-11-27T15:51:40;9.20;99.90
7206;DHT22;3644;53.480;10.004;2022-11-27T15:54:06;9.10;99.90
7206;DHT22;3644;53.480;10.004;2022-11-27T15:56:31;9.10;99.90
7206;DHT22;3644;53.480;10.004;2022-11-27T15:58:57;9.10;99.90
7206;DHT22;3644;53.480;10.004;2022-11-27T16:01:22;9.10;99.90
7206;DHT22;3644;53.480;10.004;2022-11-27T16:03:48;9.10;99.90
7206;DHT22;3644;53.480;10.004;2022-11-27T16:06:14;9.00;99.90
7206;DHT22;3644;53.480;10.004;2022-11-27T16:08:39;9.00;99.90
7206;DHT22;3644;53.480;10.004;2022-11-27T16:11:08;9.00;99.90
7206;DHT22;3644;53.480;10.004;2022-11-27T16:13:38;9.00;99.90
7206;DHT22;3644;53.480;10.004;2022-11-27T16:16:05;9.10;99.90
7206;DHT22;3644;53.480;10.004;2022-11-27T16:18:31;9.00;99.90
7206;DHT22;3644;53.480;10.004;2022-11-27T16:21:04;9.00;99.90
7206;DHT22;3644;53.480;10.004;2022-11-27T16:23:31;8.90;99.90
7206;DHT22;3644;53.480;10.004;2022-11-27T16:25:57;8.80;99.90
7206;DHT22;3644;53.480;10.004;2022-11-27T16:28:22;8.90;99.90
7206;DHT22;3644;53.480;10.004;2022-11-27T16:30:51;8.80;99.90
7206;DHT22;3644;53.480;10.004;2022-11-27T16:33:17;8.70;99.90
7206;DHT22;3644;53.480;10.004;2022-11-27T16:35:44;8.80;99.90
7206;DHT22;3644;53.480;10.004;2022-11-27T16:38:09;8.80;99.90
7206;DHT22;3644;53.480;10.004;2022-11-27T16:40:35;8.70;99.90
7206;DHT22;3644;53.480;10.004;2022-11-27T16:43:00;8.70;99.90
7206;DHT22;3644;53.480;10.004;2022-11-27T16:45:26;8.80;99.90
7206;DHT22;3644;53.480;10.004;2022-11-27T16:47:52;8.70;99.90
7206;DHT22;3644;53.480;10.004;2022-11-27T16:50:18;8.80;99.90
7206;DHT22;3644;53.480;10.004;2022-11-27T16:52:43;8.70;99.90
7206;DHT22;3644;53.480;10.004;2022-11-27T16:55:09;8.60;99.90
7206;DHT22;3644;53.480;10.004;2022-11-27T16:57:34;8.50;99.90
7206;DHT22;3644;53.480;10.004;2022-11-27T17:00:00;8.50;99.90
7206;DHT22;3644;53.480;10.004;2022-11-27T17:02:25;8.50;99.90
7206;DHT22;3644;53.480;10.004;2022-11-27T17:04:53;8.50;99.90
7206;DHT22;3644;53.480;10.004;2022-11-27T17:07:19;8.50;99.90
7206;DHT22;3644;53.480;10.004;2022-11-27T17:09:45;8.40;99.90
7206;DHT22;3644;53.480;10.004;2022-11-27T17:12:10;8.50;99.90
7206;DHT22;3644;53.480;10.004;2022-11-27T17:14:36;8.40;99.90
7206;DHT22;3644;53.480;10.004;2022-11-27T17:17:02;8.40;99.90
7206;DHT22;3644;53.480;10.004;2022-11-27T17:19:29;8.50;99.90
7206;DHT22;3644;53.480;10.004;2022-11-27T17:21:56;8.40;99.90
7206;DHT22;3644;53.480;10.004;2022-11-27T17:24:21;8.50;99.90
7206;DHT22;3644;53.480;10.004;2022-11-27T17:26:49;8.50;99.90
7206;DHT22;3644;53.480;10.004;2022-11-27T17:29:16;8.40;99.90
7206;DHT22;3644;53.480;10.004;2022-11-27T17:31:42;8.40;99.90
7206;DHT22;3644;53.480;10.004;2022-11-27T17:34:12;8.50;99.90
7206;DHT22;3644;53.480;10.004;2022-11-27T17:36:39;8.40;99.90